Time;durP1;ratioP1;P1;durP2;ratioP2;P2;SDS_P1;SDS_P2;PMS_P1;PMS_P2;Temp;Humidity;BMP_temperature;BMP_pressure;BME280_temperature;BME280_humidity;BME280_pressure;Samples;Min_cycle;Max_cycle;Signal;HPM_P1;HPM_P2
2023/06/21 04:45:27;;;;;;;37.97;34.45;;;19.20;99.90;;;;;;5044914;28;20049;-83
2023/06/21 04:47:57;;;;;;;37.42;33.83;;;19.20;99.90;;;;;;5045181;28;20944;-83
2023/06/21 04:50:24;;;;;;;37.53;34.03;;;19.30;99.90;;;;;;5044999;28;20125;-82
2023/06/21 04:52:51;;;;;;;36.03;32.53;;;19.30;99.90;;;;;;5047472;28;20079;-81
2023/06/21 04:55:19;;;;;;;35.97;32.25;;;19.30;99.90;;;;;;5047090;28;20055;-83
2023/06/21 04:57:55;;;;;;;35.75;32.10;;;19.40;99.90;;;;;;5048353;28;20041;-84
2023/06/21 05:00:23;;;;;;;37.38;33.78;;;19.40;99.90;;;;;;5031290;28;20611;-84
2023/06/21 05:02:53;;;;;;;38.83;35.15;;;19.40;99.90;;;;;;5050515;28;20124;-84
2023/06/21 05:05:19;;;;;;;37.33;33.70;;;19.50;99.90;;;;;;5037590;28;20048;-83
2023/06/21 05:07:44;;;;;;;37.58;34.05;;;20.00;99.90;;;;;;5050088;28;20033;-82
2023/06/21 05:10:10;;;;;;;35.45;32.25;;;19.50;99.90;;;;;;5052929;28;20037;-83
2023/06/21 05:12:36;;;;;;;35.90;32.47;;;19.60;99.90;;;;;;5038685;28;20418;-82
2023/06/21 05:15:03;;;;;;;35.33;32.08;;;19.60;99.90;;;;;;5051227;28;20245;-82
2023/06/21 05:17:28;;;;;;;37.10;33.60;;;19.60;99.90;;;;;;5047701;28;20069;-83
2023/06/21 05:19:54;;;;;;;39.03;35.25;;;19.70;99.90;;;;;;5034898;28;20110;-81
2023/06/21 05:22:19;;;;;;;34.70;31.33;;;19.80;99.90;;;;;;5052136;28;20091;-82
2023/06/21 05:24:45;;;;;;;32.55;29.45;;;20.00;99.90;;;;;;5049461;28;20083;-81
2023/06/21 05:27:12;;;;;;;34.97;31.77;;;20.20;99.90;;;;;;5045228;28;20044;-84
2023/06/21 05:29:39;;;;;;;32.08;29.10;;;20.40;99.90;;;;;;5050594;28;20082;-84
2023/06/21 05:32:05;;;;;;;32.33;29.25;;;20.60;99.90;;;;;;5030731;28;20061;-83
2023/06/21 05:34:31;;;;;;;28.38;25.73;;;20.90;99.90;;;;;;5048573;28;20554;-81
2023/06/21 05:36:57;;;;;;;30.63;27.80;;;21.10;99.90;;;;;;5053683;28;20041;-82
2023/06/21 05:39:23;;;;;;;29.00;26.40;;;21.30;99.90;;;;;;5049870;28;20048;-81
2023/06/21 05:41:49;;;;;;;27.10;24.55;;;21.30;99.90;;;;;;5049099;28;20036;-81
2023/06/21 05:44:15;;;;;;;27.92;25.23;;;21.30;99.90;;;;;;5049097;28;20449;-82
2023/06/21 05:46:41;;;;;;;26.35;23.95;;;21.40;99.90;;;;;;5046359;28;20080;-81
2023/06/21 05:49:06;;;;;;;27.38;24.77;;;21.70;99.90;;;;;;5045862;28;20151;-82
2023/06/21 05:51:32;;;;;;;27.20;24.05;;;21.80;99.90;;;;;;5048566;28;20033;-82
2023/06/21 05:53:57;;;;;;;23.63;21.52;;;22.10;99.90;;;;;;5047291;28;20098;-84
2023/06/21 05:56:24;;;;;;;22.10;20.05;;;22.40;99.90;;;;;;5048289;28;20029;-85
2023/06/21 05:58:51;;;;;;;20.98;18.33;;;22.70;99.90;;;;;;5030476;28;20041;-83
2023/06/21 06:01:16;;;;;;;18.63;16.77;;;22.80;99.90;;;;;;5049854;28;20103;-83
2023/06/21 06:03:43;;;;;;;18.58;16.80;;;23.00;99.90;;;;;;5052871;28;20037;-83
2023/06/21 06:06:09;;;;;;;16.38;14.88;;;23.10;99.90;;;;;;5033556;28;20029;-83
2023/06/21 06:08:35;;;;;;;15.18;13.77;;;23.40;99.90;;;;;;5047306;28;20060;-82
2023/06/21 06:11:00;;;;;;;15.82;14.32;;;23.60;99.90;;;;;;5046746;28;20037;-83
2023/06/21 06:13:28;;;;;;;14.70;13.15;;;23.80;99.90;;;;;;5046665;28;20048;-83
2023/06/21 06:15:54;;;;;;;13.65;12.45;;;23.90;99.90;;;;;;5044918;28;20153;-82
2023/06/21 06:18:19;;;;;;;12.57;11.48;;;24.00;99.90;;;;;;5046321;28;20091;-83
2023/06/21 06:20:45;;;;;;;13.30;11.40;;;24.10;99.90;;;;;;5047408;28;20045;-82
2023/06/21 06:23:11;;;;;;;11.82;10.70;;;24.20;99.90;;;;;;5043485;28;20044;-83
2023/06/21 06:25:37;;;;;;;11.90;9.43;;;24.40;99.90;;;;;;5044884;28;20041;-82
2023/06/21 06:28:03;;;;;;;9.90;8.52;;;24.50;99.90;;;;;;5038627;28;20120;-83
2023/06/21 06:30:29;;;;;;;8.80;7.95;;;24.50;99.90;;;;;;5040528;28;20156;-83
2023/06/21 06:32:54;;;;;;;8.82;7.93;;;24.50;99.90;;;;;;5043695;28;20048;-83
2023/06/21 06:35:20;;;;;;;9.70;7.47;;;24.80;99.90;;;;;;5043836;28;20033;-82
2023/06/21 06:37:45;;;;;;;7.78;7.00;;;24.90;99.90;;;;;;5040657;28;20470;-82
2023/06/21 06:40:11;;;;;;;8.48;7.13;;;25.10;99.90;;;;;;5042678;28;20060;-83
2023/06/21 06:42:37;;;;;;;7.13;6.43;;;25.20;99.90;;;;;;5041886;28;20041;-82
2023/06/21 06:45:03;;;;;;;6.50;5.90;;;25.30;99.90;;;;;;5042285;28;20036;-82
2023/06/21 06:47:29;;;;;;;6.60;5.93;;;25.40;99.90;;;;;;5027614;28;20041;-82
2023/06/21 06:49:55;;;;;;;7.05;6.22;;;25.40;99.90;;;;;;5043197;28;20049;-82
2023/06/21 06:52:21;;;;;;;9.38;5.13;;;25.50;99.90;;;;;;5040367;28;20046;-82
2023/06/21 06:54:46;;;;;;;7.53;5.47;;;25.60;99.90;;;;;;5043448;28;20558;-80
2023/06/21 06:57:12;;;;;;;6.95;6.03;;;25.90;99.90;;;;;;5041322;28;20511;-83
2023/06/21 06:59:39;;;;;;;6.55;5.88;;;25.90;99.90;;;;;;5040816;28;20406;-83
2023/06/21 07:02:05;;;;;;;6.40;5.75;;;26.10;99.90;;;;;;5028266;28;20557;-82
2023/06/21 07:04:30;;;;;;;5.90;5.05;;;26.10;99.90;;;;;;5038689;28;20124;-83
2023/06/21 07:06:58;;;;;;;9.60;4.97;;;26.10;99.90;;;;;;5038491;28;20563;-84
2023/06/21 07:09:24;;;;;;;8.68;5.70;;;26.10;99.90;;;;;;5041453;28;20107;-83
2023/06/21 07:11:50;;;;;;;6.43;5.43;;;26.10;99.90;;;;;;5042982;28;20508;-83
2023/06/21 07:14:16;;;;;;;7.93;5.55;;;26.00;99.90;;;;;;5043542;28;20044;-83
2023/06/21 07:16:42;;;;;;;5.82;5.30;;;26.10;99.90;;;;;;5040348;28;20107;-83
2023/06/21 07:19:08;;;;;;;5.72;5.15;;;26.20;99.90;;;;;;5041541;28;20127;-84
2023/06/21 07:21:33;;;;;;;5.63;4.88;;;26.20;99.90;;;;;;5043945;28;20047;-83
2023/06/21 07:23:59;;;;;;;5.53;4.63;;;26.20;99.90;;;;;;5041381;28;20512;-82
2023/06/21 07:26:25;;;;;;;8.27;5.00;;;26.10;99.90;;;;;;5037795;28;20056;-82
2023/06/21 07:28:50;;;;;;;5.35;4.65;;;26.00;99.90;;;;;;5037287;28;20072;-83
2023/06/21 07:31:16;;;;;;;5.57;4.55;;;26.00;99.90;;;;;;5040732;28;20036;-83
2023/06/21 07:33:42;;;;;;;8.32;4.40;;;25.90;99.90;;;;;;5040266;28;20041;-83
2023/06/21 07:36:08;;;;;;;4.53;4.10;;;25.90;99.90;;;;;;5042097;28;20131;-83
2023/06/21 07:38:34;;;;;;;5.90;4.43;;;26.10;99.90;;;;;;5041477;28;20098;-83
2023/06/21 07:40:59;;;;;;;5.82;4.18;;;26.30;99.90;;;;;;5038648;28;20033;-83
2023/06/21 07:43:25;;;;;;;4.28;3.45;;;26.50;99.90;;;;;;5042451;28;20048;-83
2023/06/21 07:45:51;;;;;;;8.63;4.13;;;26.60;99.90;;;;;;5040170;28;20124;-82
2023/06/21 07:48:16;;;;;;;7.70;3.88;;;26.70;99.90;;;;;;5039359;28;20037;-83
2023/06/21 07:50:42;;;;;;;5.90;3.95;;;26.80;99.90;;;;;;5028943;28;20052;-83
2023/06/21 07:53:07;;;;;;;9.82;5.47;;;26.60;99.90;;;;;;5041201;28;20139;-83
2023/06/21 07:55:33;;;;;;;7.45;3.97;;;26.80;99.90;;;;;;5041718;28;20133;-83
2023/06/21 07:57:58;;;;;;;5.90;4.00;;;26.90;99.90;;;;;;5040090;28;20506;-83
2023/06/21 08:00:24;;;;;;;7.18;3.97;;;26.90;99.90;;;;;;5040510;28;20079;-82
2023/06/21 08:02:51;;;;;;;3.83;3.47;;;26.90;99.90;;;;;;5040976;28;20042;-83
2023/06/21 08:05:20;;;;;;;5.28;3.95;;;26.90;99.90;;;;;;5044028;28;20116;-83
2023/06/21 08:07:46;;;;;;;4.30;3.63;;;26.80;99.90;;;;;;5029498;28;20060;-84
2023/06/21 08:10:12;;;;;;;4.78;3.38;;;26.70;99.90;;;;;;5038759;28;20380;-83
2023/06/21 08:12:38;;;;;;;3.47;3.15;;;26.80;99.90;;;;;;5040331;28;20131;-83
2023/06/21 08:15:04;;;;;;;4.97;2.80;;;26.90;99.90;;;;;;5040660;28;20127;-83
2023/06/21 08:17:29;;;;;;;4.30;2.83;;;26.90;99.90;;;;;;5041440;28;20041;-83
2023/06/21 08:19:55;;;;;;;2.78;2.58;;;26.90;99.90;;;;;;5043100;28;20044;-83
2023/06/21 08:22:21;;;;;;;4.25;3.35;;;27.00;99.90;;;;;;5039315;28;20037;-83
2023/06/21 08:24:46;;;;;;;4.20;2.58;;;26.90;99.90;;;;;;5039216;28;20135;-83
2023/06/21 08:27:14;;;;;;;5.03;3.08;;;27.00;99.90;;;;;;5037677;28;20487;-83
2023/06/21 08:29:39;;;;;;;8.77;2.70;;;27.00;99.90;;;;;;5043441;28;20045;-83
2023/06/21 08:32:05;;;;;;;3.80;3.47;;;26.90;99.90;;;;;;5040659;28;20045;-83
2023/06/21 08:34:31;;;;;;;5.70;3.08;;;27.00;99.90;;;;;;5041119;28;20399;-83
2023/06/21 08:36:56;;;;;;;5.00;2.55;;;27.00;99.90;;;;;;5043836;28;20121;-83
2023/06/21 08:39:22;;;;;;;5.22;2.90;;;26.90;99.90;;;;;;5043843;28;20037;-84
2023/06/21 08:41:49;;;;;;;5.43;2.75;;;26.80;99.90;;;;;;5040306;28;20492;-83
2023/06/21 08:44:14;;;;;;;8.20;2.47;;;26.70;99.90;;;;;;5039268;28;20514;-83
2023/06/21 08:46:42;;;;;;;6.18;2.22;;;26.70;99.90;;;;;;5044387;28;20076;-84
2023/06/21 08:49:13;;;;;;;3.70;2.50;;;26.50;99.90;;;;;;5046579;28;20045;-84
2023/06/21 08:51:40;;;;;;;4.78;2.28;;;26.30;99.90;;;;;;5055945;28;20034;-85
2023/06/21 08:54:13;;;;;;;2.33;2.10;;;26.50;99.90;;;;;;5028435;28;20044;-84
2023/06/21 08:56:45;;;;;;;4.00;2.20;;;26.40;99.90;;;;;;5042030;28;20122;-85
2023/06/21 08:59:41;;;;;;;6.60;2.08;;;26.60;99.90;;;;;;5028554;28;20402;-85
2023/06/21 09:02:42;;;;;;;2.35;2.03;;;26.90;99.90;;;;;;5037889;28;20069;-85
2023/06/21 09:05:25;;;;;;;2.63;2.00;;;27.00;99.90;;;;;;5030165;28;20040;-85
2023/06/21 09:07:51;;;;;;;2.50;2.03;;;27.10;99.90;;;;;;5024994;28;20037;-85
2023/06/21 09:10:20;;;;;;;3.95;2.22;;;27.10;99.90;;;;;;5029383;28;20519;-84
2023/06/21 09:12:49;;;;;;;4.47;2.58;;;27.50;99.90;;;;;;5030849;28;20518;-85
2023/06/21 09:15:15;;;;;;;3.83;2.20;;;27.20;99.90;;;;;;5042795;28;20045;-85
2023/06/21 09:17:44;;;;;;;2.92;2.38;;;27.20;99.90;;;;;;5021386;28;20051;-85
2023/06/21 09:20:19;;;;;;;4.18;2.38;;;27.40;99.90;;;;;;5044720;28;20434;-84
2023/06/21 09:22:46;;;;;;;3.00;2.40;;;27.60;99.90;;;;;;5024998;28;20094;-84
2023/06/21 09:25:14;;;;;;;2.88;2.15;;;27.60;99.90;;;;;;5012183;28;20041;-85
2023/06/21 09:27:41;;;;;;;4.70;2.45;;;27.20;99.90;;;;;;5011605;28;20034;-85
2023/06/21 09:30:14;;;;;;;3.10;2.75;;;27.40;99.90;;;;;;5031408;28;20054;-85
2023/06/21 09:32:43;;;;;;;5.13;3.00;;;27.10;99.90;;;;;;5026588;28;20428;-85
2023/06/21 09:35:14;;;;;;;5.65;2.47;;;27.10;99.90;;;;;;5030586;28;20040;-85
2023/06/21 09:37:41;;;;;;;3.33;2.83;;;27.00;99.90;;;;;;5024774;28;20041;-85
2023/06/21 09:40:08;;;;;;;5.25;2.17;;;27.20;99.90;;;;;;5028315;28;20517;-85
2023/06/21 09:42:39;;;;;;;4.43;2.17;;;27.30;99.90;;;;;;5046145;28;20468;-85
2023/06/21 09:45:12;;;;;;;2.50;2.03;;;27.50;99.90;;;;;;5046362;28;20091;-85
2023/06/21 09:47:41;;;;;;;5.00;2.42;;;27.40;99.90;;;;;;5027510;28;20533;-86
2023/06/21 09:50:08;;;;;;;2.88;2.38;;;27.50;99.90;;;;;;5032732;28;20045;-85
2023/06/21 09:52:34;;;;;;;3.25;2.40;;;27.70;99.90;;;;;;5045609;28;20048;-85
2023/06/21 09:55:01;;;;;;;2.72;1.77;;;27.70;99.90;;;;;;5047201;28;20068;-83
2023/06/21 09:57:31;;;;;;;3.00;2.13;;;27.70;99.90;;;;;;5046206;28;20530;-85
2023/06/21 09:59:59;;;;;;;5.18;2.85;;;27.80;99.90;;;;;;5047819;28;20033;-85
2023/06/21 10:02:25;;;;;;;3.75;2.50;;;27.90;99.90;;;;;;5046895;28;20048;-85
2023/06/21 10:04:54;;;;;;;7.70;2.35;;;28.00;99.90;;;;;;5044039;28;20040;-85
2023/06/21 10:07:21;;;;;;;2.78;1.60;;;27.90;99.90;;;;;;5048308;28;20403;-85
2023/06/21 10:09:47;;;;;;;3.10;2.72;;;28.30;99.90;;;;;;5032619;28;20120;-85
2023/06/21 10:12:14;;;;;;;5.63;2.30;;;28.10;99.90;;;;;;5051093;28;20060;-83
2023/06/21 10:14:42;;;;;;;2.40;1.60;;;27.80;99.90;;;;;;5047519;28;20033;-83
2023/06/21 10:17:08;;;;;;;4.00;1.52;;;27.70;99.90;;;;;;5049945;28;20038;-84
2023/06/21 10:19:35;;;;;;;2.33;2.00;;;27.50;99.90;;;;;;5048734;28;20060;-83
2023/06/21 10:22:12;;;;;;;3.08;2.20;;;27.40;99.90;;;;;;5050333;28;20043;-84
2023/06/21 10:24:41;;;;;;;3.05;2.58;;;27.80;99.90;;;;;;5046996;28;20482;-83
2023/06/21 10:27:07;;;;;;;4.20;2.60;;;27.40;99.90;;;;;;5033092;28;20036;-84
2023/06/21 10:29:34;;;;;;;3.15;2.60;;;27.50;99.90;;;;;;5046924;28;20055;-84
2023/06/21 10:32:00;;;;;;;2.40;2.10;;;27.30;99.90;;;;;;5054087;28;20037;-85
2023/06/21 10:34:28;;;;;;;2.53;2.33;;;27.30;99.90;;;;;;5038117;28;20047;-83
2023/06/21 10:37:02;;;;;;;7.30;2.65;;;27.40;99.90;;;;;;5051379;28;20068;-84
2023/06/21 10:39:33;;;;;;;4.28;2.30;;;27.60;99.90;;;;;;5052007;28;20478;-84
2023/06/21 10:42:03;;;;;;;7.93;2.83;;;27.50;99.90;;;;;;5035445;28;20049;-83
2023/06/21 10:44:30;;;;;;;3.20;2.00;;;27.70;99.90;;;;;;5037735;28;20053;-83
2023/06/21 10:46:59;;;;;;;2.88;2.35;;;27.80;99.90;;;;;;5056040;28;20060;-84
2023/06/21 10:49:28;;;;;;;3.03;2.53;;;27.90;99.90;;;;;;5046473;28;20596;-83
2023/06/21 10:51:55;;;;;;;3.92;2.50;;;28.00;99.90;;;;;;5051435;28;20097;-84
2023/06/21 10:54:22;;;;;;;5.68;2.20;;;27.90;99.90;;;;;;5046777;28;20048;-84
2023/06/21 10:56:49;;;;;;;4.93;1.65;;;27.80;99.90;;;;;;5040798;28;20040;-84
2023/06/21 10:59:17;;;;;;;3.63;2.13;;;27.90;99.90;;;;;;5041844;28;20038;-84
2023/06/21 11:01:42;;;;;;;2.95;2.17;;;28.00;99.70;;;;;;5047825;28;20057;-85
2023/06/21 11:04:08;;;;;;;2.80;1.88;;;28.10;99.90;;;;;;5044260;28;20557;-84
2023/06/21 11:06:37;;;;;;;3.47;2.65;;;28.20;99.90;;;;;;5046213;28;20204;-84
2023/06/21 11:09:11;;;;;;;3.50;2.17;;;28.30;99.80;;;;;;5043614;28;20049;-84
2023/06/21 11:11:43;;;;;;;3.15;2.45;;;28.40;99.90;;;;;;5031920;28;20045;-84
2023/06/21 11:14:09;;;;;;;2.28;1.30;;;28.40;99.40;;;;;;5046879;28;20094;-83
2023/06/21 11:16:37;;;;;;;2.83;1.08;;;28.50;98.70;;;;;;5044643;28;20030;-84
2023/06/21 11:19:06;;;;;;;1.95;1.30;;;28.80;98.50;;;;;;5047206;28;20091;-84
2023/06/21 11:21:45;;;;;;;3.55;1.95;;;28.50;98.10;;;;;;5041973;28;20049;-84
2023/06/21 11:24:20;;;;;;;2.10;1.50;;;28.50;98.60;;;;;;5046028;28;20045;-82
2023/06/21 11:27:01;;;;;;;3.22;1.92;;;28.80;98.10;;;;;;5046121;28;20037;-83
2023/06/21 11:29:40;;;;;;;4.57;1.55;;;28.60;96.70;;;;;;5028532;28;20559;-83
2023/06/21 11:32:15;;;;;;;2.75;1.00;;;28.50;97.50;;;;;;5014571;28;20437;-84
2023/06/21 11:35:00;;;;;;;3.85;1.55;;;28.70;97.90;;;;;;5042946;28;20494;-84
2023/06/21 11:37:41;;;;;;;2.28;1.42;;;28.70;97.70;;;;;;5043664;28;20049;-84
2023/06/21 11:40:09;;;;;;;2.13;1.45;;;28.70;96.80;;;;;;5044378;28;20060;-83
2023/06/21 11:42:46;;;;;;;3.20;1.40;;;28.60;97.80;;;;;;5025633;28;20064;-84
2023/06/21 11:45:35;;;;;;;4.85;1.80;;;28.50;96.90;;;;;;5060134;28;20131;-83
2023/06/21 11:48:08;;;;;;;2.17;1.33;;;28.60;96.50;;;;;;5033261;28;20040;-84
2023/06/21 11:50:46;;;;;;;2.80;1.77;;;28.50;97.60;;;;;;5043909;28;20369;-83
2023/06/21 11:53:16;;;;;;;2.53;1.60;;;28.40;97.70;;;;;;5042707;28;20037;-84
2023/06/21 11:55:43;;;;;;;1.95;1.30;;;28.30;97.70;;;;;;5048839;28;20051;-83
2023/06/21 11:58:09;;;;;;;1.80;1.70;;;28.30;97.90;;;;;;5045331;28;20044;-84
2023/06/21 12:00:35;;;;;;;4.25;1.80;;;28.40;98.90;;;;;;5042001;28;20048;-84
2023/06/21 12:03:06;;;;;;;3.45;1.80;;;28.40;98.40;;;;;;5041912;28;20041;-84
2023/06/21 12:05:53;;;;;;;3.33;1.67;;;28.20;98.20;;;;;;5042653;28;20049;-83
2023/06/21 12:08:21;;;;;;;4.25;2.00;;;28.00;97.10;;;;;;5041689;28;20132;-84
2023/06/21 12:10:48;;;;;;;2.95;2.22;;;27.90;98.60;;;;;;5043996;28;20403;-84
2023/06/21 12:13:15;;;;;;;2.50;1.83;;;28.00;98.70;;;;;;5042270;28;20036;-84
2023/06/21 12:15:46;;;;;;;3.75;2.00;;;27.90;99.00;;;;;;5045669;28;20036;-84
2023/06/21 12:18:12;;;;;;;3.80;2.40;;;27.90;98.70;;;;;;5024374;28;20040;-83
2023/06/21 12:20:37;;;;;;;3.67;2.78;;;27.80;98.70;;;;;;5040393;28;20677;-83
2023/06/21 12:23:07;;;;;;;3.42;2.85;;;27.60;98.50;;;;;;5046838;28;20120;-83
2023/06/21 12:25:50;;;;;;;3.28;2.83;;;27.60;98.90;;;;;;5040224;28;20037;-84
2023/06/21 12:28:17;;;;;;;4.88;3.00;;;27.60;97.80;;;;;;5043363;28;20044;-83
2023/06/21 12:30:50;;;;;;;7.10;3.40;;;27.70;98.20;;;;;;5040752;28;20175;-83
2023/06/21 12:33:17;;;;;;;8.55;3.60;;;27.80;98.40;;;;;;5040547;28;20037;-83
2023/06/21 12:35:46;;;;;;;3.08;2.60;;;28.10;98.20;;;;;;5044655;28;20025;-83
2023/06/21 12:38:13;;;;;;;2.92;2.67;;;28.20;98.50;;;;;;5040947;28;20124;-84
2023/06/21 12:40:54;;;;;;;5.82;3.20;;;28.30;97.80;;;;;;5047672;28;20056;-84
2023/06/21 12:43:36;;;;;;;2.85;2.40;;;28.40;97.40;;;;;;5037720;28;20570;-84
2023/06/21 12:46:08;;;;;;;3.45;2.20;;;28.40;97.30;;;;;;5039882;28;20047;-84
2023/06/21 12:48:35;;;;;;;6.60;2.63;;;28.50;96.70;;;;;;5040667;28;20049;-85
2023/06/21 12:51:03;;;;;;;2.92;2.60;;;28.50;97.20;;;;;;5042367;28;20064;-84
2023/06/21 12:53:35;;;;;;;2.78;1.80;;;28.90;97.30;;;;;;5025814;28;20068;-85
2023/06/21 12:56:09;;;;;;;4.00;2.40;;;28.70;97.20;;;;;;5042616;28;20061;-86
2023/06/21 12:58:39;;;;;;;3.42;1.40;;;28.70;96.70;;;;;;5026636;28;20037;-85
2023/06/21 13:01:05;;;;;;;2.95;1.60;;;28.70;96.70;;;;;;5043158;28;20442;-84
2023/06/21 13:03:32;;;;;;;9.20;1.23;;;28.70;96.00;;;;;;5040251;28;20037;-86
2023/06/21 13:05:59;;;;;;;5.65;1.27;;;28.90;95.10;;;;;;5024454;28;20037;-85
2023/06/21 13:08:25;;;;;;;6.07;1.35;;;29.00;94.70;;;;;;5026128;28;20044;-85
2023/06/21 13:11:08;;;;;;;7.85;1.95;;;29.00;94.10;;;;;;5042887;28;20045;-85
2023/06/21 13:13:34;;;;;;;4.90;1.08;;;28.90;93.80;;;;;;5043624;28;20130;-84
2023/06/21 13:16:11;;;;;;;1.48;0.98;;;28.90;94.10;;;;;;5043824;28;21138;-86
2023/06/21 13:18:44;;;;;;;1.70;0.85;;;29.00;93.70;;;;;;5041833;28;20037;-83
2023/06/21 13:21:16;;;;;;;2.20;0.98;;;28.90;93.60;;;;;;5047099;28;20151;-84
2023/06/21 13:23:42;;;;;;;2.55;1.10;;;29.00;93.70;;;;;;5031477;28;20360;-84
2023/06/21 13:26:08;;;;;;;1.60;0.90;;;28.90;93.40;;;;;;5045942;28;20040;-83
2023/06/21 13:28:34;;;;;;;5.95;1.10;;;29.00;93.50;;;;;;5048075;28;20047;-84
2023/06/21 13:31:00;;;;;;;4.22;0.82;;;28.90;93.10;;;;;;5029679;28;20167;-86
2023/06/21 13:33:25;;;;;;;1.92;0.82;;;29.00;93.30;;;;;;5046170;28;20060;-84
2023/06/21 13:35:52;;;;;;;2.15;0.85;;;28.90;93.40;;;;;;5044060;28;20072;-84
2023/06/21 13:38:18;;;;;;;6.97;0.95;;;28.80;92.60;;;;;;5043743;28;20050;-84
2023/06/21 13:40:44;;;;;;;1.25;0.70;;;28.80;92.80;;;;;;5046639;28;20040;-84
2023/06/21 13:43:11;;;;;;;3.08;0.73;;;28.70;92.90;;;;;;5044251;28;20037;-85
2023/06/21 13:45:37;;;;;;;1.58;1.00;;;28.70;92.20;;;;;;5022158;28;20052;-84
2023/06/21 13:48:03;;;;;;;4.75;0.95;;;28.70;90.30;;;;;;5044484;28;20041;-85
2023/06/21 13:50:30;;;;;;;1.42;0.88;;;28.60;91.30;;;;;;5058669;28;20037;-86
2023/06/21 13:52:56;;;;;;;4.53;0.90;;;28.70;90.90;;;;;;5045966;28;21383;-85
2023/06/21 13:55:21;;;;;;;2.97;1.20;;;28.60;91.70;;;;;;5042874;28;20064;-84
2023/06/21 13:57:51;;;;;;;1.25;1.00;;;28.70;91.70;;;;;;5041229;28;20044;-86
2023/06/21 14:00:18;;;;;;;3.58;0.80;;;28.60;91.70;;;;;;5040501;28;20076;-85
2023/06/21 14:02:53;;;;;;;1.73;0.95;;;28.60;93.00;;;;;;5047147;28;20091;-85
2023/06/21 14:05:21;;;;;;;1.05;0.95;;;28.50;92.40;;;;;;5046279;28;20040;-83
2023/06/21 14:07:47;;;;;;;2.25;1.02;;;28.50;92.30;;;;;;5042715;28;20509;-85
2023/06/21 14:10:13;;;;;;;4.55;1.23;;;28.40;92.00;;;;;;5042854;28;20060;-84
2023/06/21 14:12:42;;;;;;;4.13;0.80;;;28.40;92.10;;;;;;5043609;28;20484;-83
2023/06/21 14:15:09;;;;;;;1.42;1.00;;;28.50;92.70;;;;;;5045568;28;20045;-84
2023/06/21 14:17:35;;;;;;;3.17;0.80;;;28.50;92.50;;;;;;5045032;28;20098;-83
2023/06/21 14:20:04;;;;;;;6.63;1.08;;;28.50;92.30;;;;;;5042081;28;20045;-84
2023/06/21 14:22:30;;;;;;;2.35;1.00;;;28.40;92.80;;;;;;5044879;28;20102;-83
2023/06/21 14:24:59;;;;;;;5.13;1.60;;;28.30;92.40;;;;;;5027419;28;20056;-83
2023/06/21 14:27:25;;;;;;;3.55;1.35;;;28.30;91.90;;;;;;5041595;28;20048;-83
2023/06/21 14:29:54;;;;;;;4.80;1.52;;;28.40;92.80;;;;;;5040523;28;20052;-83
2023/06/21 14:32:21;;;;;;;3.25;1.48;;;28.40;92.80;;;;;;5041316;28;20052;-83
2023/06/21 14:34:46;;;;;;;2.03;1.35;;;28.40;92.10;;;;;;5042877;28;20110;-83
2023/06/21 14:37:13;;;;;;;1.90;1.30;;;28.40;91.80;;;;;;5041724;28;20049;-84
2023/06/21 14:39:39;;;;;;;4.30;1.10;;;28.40;91.80;;;;;;5043523;28;20051;-82
2023/06/21 14:42:07;;;;;;;2.50;1.23;;;28.30;91.20;;;;;;5043595;28;20732;-80
2023/06/21 14:44:32;;;;;;;3.35;1.30;;;28.20;91.60;;;;;;5042537;28;20040;-82
2023/06/21 14:46:58;;;;;;;2.63;1.30;;;28.20;91.30;;;;;;5040376;28;20045;-82
2023/06/21 14:49:23;;;;;;;4.60;1.50;;;28.10;91.40;;;;;;5043178;28;20449;-82
2023/06/21 14:51:49;;;;;;;5.32;1.38;;;28.10;91.90;;;;;;5043699;28;20037;-83
2023/06/21 14:54:14;;;;;;;4.38;1.80;;;28.10;92.10;;;;;;5042480;28;20049;-82
2023/06/21 14:56:40;;;;;;;5.47;1.92;;;28.00;92.70;;;;;;5042488;28;20037;-79
2023/06/21 14:59:05;;;;;;;5.13;1.80;;;28.00;93.10;;;;;;5039513;28;20048;-83
2023/06/21 15:01:31;;;;;;;3.13;2.00;;;28.00;93.80;;;;;;5040386;28;20045;-83
2023/06/21 15:03:57;;;;;;;3.47;1.63;;;28.00;93.80;;;;;;5042587;28;20118;-81
2023/06/21 15:06:23;;;;;;;3.25;1.85;;;28.10;93.90;;;;;;5038427;28;20115;-80
2023/06/21 15:08:49;;;;;;;4.47;1.98;;;28.10;94.30;;;;;;5040285;28;20133;-84
2023/06/21 15:11:15;;;;;;;4.28;2.63;;;28.10;94.10;;;;;;5045428;28;20138;-83
2023/06/21 15:13:40;;;;;;;6.97;2.63;;;28.10;93.90;;;;;;5046147;28;20440;-85
2023/06/21 15:16:06;;;;;;;3.70;2.30;;;28.10;94.50;;;;;;5043151;28;20563;-83
2023/06/21 15:18:33;;;;;;;4.18;2.17;;;28.00;93.70;;;;;;5042141;28;20587;-82
2023/06/21 15:21:00;;;;;;;4.03;2.53;;;28.00;93.80;;;;;;5041134;28;20491;-84
2023/06/21 15:23:26;;;;;;;3.47;1.98;;;28.00;94.30;;;;;;5026960;28;20056;-84
2023/06/21 15:25:51;;;;;;;4.05;2.22;;;27.90;94.50;;;;;;5038908;28;20159;-83
2023/06/21 15:28:17;;;;;;;8.13;2.90;;;27.80;95.00;;;;;;5042241;28;20046;-83
2023/06/21 15:30:42;;;;;;;10.45;3.33;;;27.60;94.60;;;;;;5039800;28;20041;-82
2023/06/21 15:33:10;;;;;;;3.95;2.70;;;27.70;95.10;;;;;;5024422;28;20043;-83
2023/06/21 15:35:35;;;;;;;5.40;2.97;;;27.70;94.90;;;;;;5042785;28;20041;-85
2023/06/21 15:38:01;;;;;;;5.72;2.40;;;27.60;95.00;;;;;;5044764;28;20044;-83
2023/06/21 15:40:26;;;;;;;4.60;2.20;;;27.60;95.80;;;;;;5043485;28;20059;-83
2023/06/21 15:42:52;;;;;;;7.63;3.15;;;27.60;96.00;;;;;;5045979;28;20048;-84
2023/06/21 15:45:17;;;;;;;4.50;2.63;;;27.70;96.20;;;;;;5044952;28;20037;-85
2023/06/21 15:47:43;;;;;;;6.15;2.35;;;27.70;96.20;;;;;;5046354;28;20114;-85
2023/06/21 15:50:11;;;;;;;10.05;3.72;;;27.60;96.20;;;;;;5045045;28;20041;-81
2023/06/21 15:52:37;;;;;;;5.07;2.58;;;27.60;95.80;;;;;;5027098;28;20087;-84
2023/06/21 15:55:04;;;;;;;6.43;3.13;;;27.60;96.20;;;;;;5042325;28;20058;-81
2023/06/21 15:57:30;;;;;;;8.95;2.80;;;27.50;95.90;;;;;;5040613;28;20037;-83
2023/06/21 15:59:56;;;;;;;5.80;3.20;;;27.50;95.20;;;;;;5043826;28;20047;-83
2023/06/21 16:02:21;;;;;;;19.23;2.70;;;27.40;95.50;;;;;;5041042;28;20175;-82
2023/06/21 16:04:47;;;;;;;10.90;1.98;;;27.30;96.00;;;;;;5042019;28;20120;-83
2023/06/21 16:07:13;;;;;;;8.07;2.85;;;27.20;96.10;;;;;;5042863;28;20041;-83
2023/06/21 16:09:38;;;;;;;4.78;1.88;;;27.20;95.60;;;;;;5043268;28;20094;-83
2023/06/21 16:12:04;;;;;;;4.10;2.78;;;27.20;96.20;;;;;;5043980;28;20044;-83
2023/06/21 16:14:29;;;;;;;5.18;2.20;;;27.10;95.50;;;;;;5041715;28;20045;-83
2023/06/21 16:16:55;;;;;;;4.45;2.33;;;27.00;95.90;;;;;;5039969;28;20095;-83
2023/06/21 16:19:21;;;;;;;6.15;2.40;;;27.00;96.10;;;;;;5041153;28;20033;-83
2023/06/21 16:21:47;;;;;;;4.72;2.50;;;27.00;95.60;;;;;;5040098;28;20438;-83
2023/06/21 16:24:15;;;;;;;4.70;2.67;;;26.90;95.50;;;;;;5040958;28;20033;-83
2023/06/21 16:26:41;;;;;;;4.88;2.50;;;26.90;95.30;;;;;;5043354;28;20053;-83
2023/06/21 16:29:06;;;;;;;8.02;2.47;;;26.80;95.20;;;;;;5039967;28;20052;-84
2023/06/21 16:31:37;;;;;;;4.50;1.85;;;26.60;95.60;;;;;;5041970;28;20617;-83
2023/06/21 16:34:02;;;;;;;3.25;2.28;;;26.60;95.90;;;;;;5041182;28;20479;-83
2023/06/21 16:36:28;;;;;;;2.92;1.92;;;26.50;95.60;;;;;;5041539;28;20073;-83
2023/06/21 16:38:54;;;;;;;3.00;1.65;;;26.40;95.60;;;;;;5041366;28;20406;-84
2023/06/21 16:41:20;;;;;;;2.97;1.50;;;26.40;95.10;;;;;;5040455;28;20040;-84
2023/06/21 16:43:45;;;;;;;5.93;1.27;;;26.40;95.70;;;;;;5040562;28;20092;-83
2023/06/21 16:46:11;;;;;;;3.78;1.42;;;26.40;96.00;;;;;;5043110;28;20151;-84
2023/06/21 16:48:36;;;;;;;2.22;1.65;;;26.30;95.20;;;;;;5041999;28;20044;-84
2023/06/21 16:51:02;;;;;;;3.88;1.63;;;26.30;94.70;;;;;;5042036;28;20033;-84
2023/06/21 16:53:27;;;;;;;2.65;1.70;;;26.20;94.40;;;;;;5042607;28;20043;-83
2023/06/21 16:55:53;;;;;;;3.75;1.73;;;26.10;94.60;;;;;;5046633;28;20032;-81
2023/06/21 16:58:19;;;;;;;3.10;1.38;;;26.00;95.10;;;;;;5024147;28;20077;-83
2023/06/21 17:00:44;;;;;;;2.92;1.52;;;26.10;95.10;;;;;;5043229;28;20037;-82
2023/06/21 17:03:10;;;;;;;2.35;0.90;;;26.00;95.10;;;;;;5046432;28;20036;-83
2023/06/21 17:05:36;;;;;;;2.30;1.52;;;25.90;95.20;;;;;;5046680;28;20045;-83
2023/06/21 17:08:01;;;;;;;1.63;1.13;;;25.90;95.20;;;;;;5045413;28;20090;-81
2023/06/21 17:10:27;;;;;;;7.25;1.65;;;25.80;95.50;;;;;;5047470;28;20045;-83
2023/06/21 17:12:52;;;;;;;1.77;1.30;;;25.80;95.80;;;;;;5045102;28;20032;-81
2023/06/21 17:15:18;;;;;;;4.03;2.53;;;25.70;95.80;;;;;;5048080;28;20052;-81
2023/06/21 17:17:44;;;;;;;5.00;1.65;;;25.60;95.50;;;;;;5046656;28;20053;-80
2023/06/21 17:20:10;;;;;;;3.70;1.65;;;25.60;95.70;;;;;;5049786;28;20665;-81
2023/06/21 17:22:36;;;;;;;2.70;1.60;;;25.50;96.00;;;;;;5050059;28;20037;-82
2023/06/21 17:25:02;;;;;;;4.45;1.33;;;25.50;95.70;;;;;;5049615;28;20037;-82
2023/06/21 17:27:28;;;;;;;3.78;1.67;;;25.30;96.00;;;;;;5046973;28;20053;-82
2023/06/21 17:29:53;;;;;;;4.97;1.90;;;25.30;95.90;;;;;;5047345;28;20056;-82